Time;durP1;ratioP1;P1;durP2;ratioP2;P2;SDS_P1;SDS_P2;PMS_P1;PMS_P2;Temp;Humidity;BMP_temperature;BMP_pressure;BME280_temperature;BME280_humidity;BME280_pressure;Samples;Min_cycle;Max_cycle;Signal;HPM_P1;HPM_P2
2023/01/26 00:02:07;;;;;;;39.00;21.27;;;2.30;99.90;;;;;;5011567;28;20240;-68
2023/01/26 00:04:32;;;;;;;38.70;22.63;;;2.40;99.90;;;;;;5012892;28;20523;-67
2023/01/26 00:06:57;;;;;;;37.97;22.53;;;2.30;99.90;;;;;;5013421;28;20176;-68
2023/01/26 00:09:23;;;;;;;32.13;20.93;;;2.20;99.90;;;;;;5007427;28;20779;-67
2023/01/26 00:11:48;;;;;;;42.80;23.33;;;2.20;99.90;;;;;;4990830;28;20206;-69
2023/01/26 00:14:14;;;;;;;43.77;23.03;;;2.20;99.90;;;;;;5006960;28;20176;-69
2023/01/26 00:16:39;;;;;;;37.63;22.67;;;2.20;99.90;;;;;;5012949;28;20190;-69
2023/01/26 00:19:05;;;;;;;36.40;22.10;;;2.20;99.90;;;;;;5013327;28;20643;-68
2023/01/26 00:21:31;;;;;;;35.87;21.07;;;2.20;99.90;;;;;;5028074;28;20644;-69
2023/01/26 00:23:56;;;;;;;38.13;22.40;;;2.20;99.90;;;;;;5019516;28;20651;-69
2023/01/26 00:26:24;;;;;;;43.00;24.67;;;2.20;99.90;;;;;;5022451;28;20187;-69
2023/01/26 00:28:50;;;;;;;40.40;22.13;;;2.20;99.90;;;;;;5025460;28;20252;-69
2023/01/26 00:31:22;;;;;;;35.83;21.70;;;2.20;99.90;;;;;;5012771;28;20447;-69
2023/01/26 00:33:48;;;;;;;35.17;21.77;;;2.20;99.90;;;;;;5015366;28;20536;-70
2023/01/26 00:36:14;;;;;;;38.33;22.20;;;2.30;99.90;;;;;;5012274;28;20533;-70
2023/01/26 00:38:40;;;;;;;33.50;19.30;;;2.30;99.90;;;;;;5010869;28;20473;-69
2023/01/26 00:41:05;;;;;;;31.53;20.40;;;2.10;99.90;;;;;;5011867;28;20437;-69
2023/01/26 00:43:31;;;;;;;39.80;20.97;;;1.90;99.90;;;;;;5012227;28;20179;-69
2023/01/26 00:45:57;;;;;;;34.93;20.63;;;1.90;99.90;;;;;;5017098;28;20183;-69
2023/01/26 00:48:22;;;;;;;45.47;22.50;;;1.90;99.90;;;;;;5017889;28;20684;-68
2023/01/26 00:50:50;;;;;;;41.23;23.13;;;1.90;99.90;;;;;;5013596;28;20221;-68
2023/01/26 00:53:15;;;;;;;37.80;23.90;;;1.90;99.90;;;;;;5020787;28;20179;-68
2023/01/26 00:55:41;;;;;;;37.50;21.73;;;2.00;99.90;;;;;;5020794;28;20440;-69
2023/01/26 00:58:07;;;;;;;36.37;21.80;;;2.00;99.90;;;;;;5021437;28;20509;-69
2023/01/26 01:00:34;;;;;;;37.23;21.90;;;2.00;99.90;;;;;;5007567;28;20183;-68
2023/01/26 01:03:00;;;;;;;36.80;20.50;;;1.90;99.90;;;;;;5012128;28;20441;-68
2023/01/26 01:05:28;;;;;;;34.80;22.30;;;1.90;99.90;;;;;;5012713;28;20814;-68
2023/01/26 01:07:54;;;;;;;39.60;21.50;;;1.90;99.90;;;;;;5012195;28;20484;-68
2023/01/26 01:10:19;;;;;;;40.70;23.30;;;1.80;99.90;;;;;;5014978;28;20515;-68
2023/01/26 01:12:45;;;;;;;40.80;23.60;;;1.80;99.90;;;;;;5023091;28;20549;-68
2023/01/26 01:15:11;;;;;;;40.13;23.10;;;1.90;99.90;;;;;;5010704;28;20775;-68
2023/01/26 01:17:37;;;;;;;35.37;20.60;;;1.90;99.90;;;;;;5009080;28;20637;-68
2023/01/26 01:20:04;;;;;;;36.83;22.73;;;2.00;99.90;;;;;;5012281;28;20512;-69
2023/01/26 01:22:31;;;;;;;39.07;22.93;;;2.00;99.90;;;;;;5011878;28;20179;-69
2023/01/26 01:24:56;;;;;;;36.40;21.73;;;2.00;99.90;;;;;;5011558;28;20939;-69
2023/01/26 01:27:22;;;;;;;38.00;21.30;;;2.00;99.90;;;;;;5011404;28;20437;-69
2023/01/26 01:29:49;;;;;;;37.47;22.50;;;2.00;99.90;;;;;;5009702;28;20683;-69
2023/01/26 01:32:15;;;;;;;41.27;22.70;;;2.10;99.90;;;;;;5008496;28;20214;-68
2023/01/26 01:34:40;;;;;;;39.97;22.20;;;2.10;99.90;;;;;;5020271;28;20472;-69
2023/01/26 01:37:06;;;;;;;39.77;22.60;;;2.10;99.90;;;;;;5012666;28;20687;-69
2023/01/26 01:39:31;;;;;;;39.03;22.73;;;2.10;99.90;;;;;;5020594;28;20218;-70
2023/01/26 01:41:57;;;;;;;43.80;23.33;;;2.20;99.90;;;;;;5023161;28;20197;-69
2023/01/26 01:44:24;;;;;;;31.90;20.03;;;2.20;99.90;;;;;;5018742;28;20227;-68
2023/01/26 01:46:59;;;;;;;38.67;22.70;;;2.20;99.90;;;;;;5024340;28;20189;-68
2023/01/26 01:49:35;;;;;;;46.47;23.43;;;2.20;99.90;;;;;;5016451;28;20853;-69
2023/01/26 01:52:20;;;;;;;44.97;23.40;;;2.10;99.90;;;;;;5018291;28;21163;-69
2023/01/26 01:55:11;;;;;;;38.43;21.13;;;2.20;99.90;;;;;;5016423;28;20433;-69
2023/01/26 01:57:44;;;;;;;38.67;20.33;;;2.20;99.90;;;;;;5016052;28;20508;-69
2023/01/26 02:00:13;;;;;;;38.27;22.90;;;2.20;99.90;;;;;;5013740;28;20469;-69
2023/01/26 02:02:40;;;;;;;37.27;21.90;;;2.20;99.90;;;;;;5020405;28;20488;-70
2023/01/26 02:05:30;;;;;;;35.57;19.67;;;2.30;99.90;;;;;;5021112;28;20441;-70
2023/01/26 02:07:56;;;;;;;43.37;22.40;;;2.10;99.90;;;;;;5000120;28;20449;-69
2023/01/26 02:10:22;;;;;;;39.23;22.50;;;2.10;99.90;;;;;;5023566;28;20806;-69
2023/01/26 02:12:54;;;;;;;42.50;22.87;;;2.10;99.90;;;;;;5015147;28;20982;-69
2023/01/26 02:15:20;;;;;;;39.20;22.40;;;2.10;99.90;;;;;;5017066;28;20437;-69
2023/01/26 02:17:45;;;;;;;40.73;21.70;;;2.20;99.90;;;;;;5020435;28;20508;-69
2023/01/26 02:20:42;;;;;;;33.70;19.97;;;2.10;99.90;;;;;;5022414;28;20556;-69
2023/01/26 02:23:16;;;;;;;37.87;21.20;;;2.10;99.90;;;;;;5020678;28;20596;-69
2023/01/26 02:25:51;;;;;;;46.70;21.90;;;2.10;99.90;;;;;;5019056;28;20437;-69
2023/01/26 02:28:19;;;;;;;33.43;20.80;;;2.00;99.90;;;;;;5016037;28;20461;-69
2023/01/26 02:30:45;;;;;;;39.00;22.00;;;2.00;99.90;;;;;;5017257;28;20959;-69
2023/01/26 02:33:18;;;;;;;36.97;20.40;;;2.10;99.90;;;;;;5023767;28;20433;-69
2023/01/26 02:35:44;;;;;;;42.67;20.73;;;2.10;99.90;;;;;;5016701;28;20430;-69
2023/01/26 02:38:09;;;;;;;37.93;21.70;;;2.10;99.90;;;;;;5008873;28;20831;-70
2023/01/26 02:40:50;;;;;;;31.07;18.43;;;2.10;99.90;;;;;;4991358;28;20262;-69
2023/01/26 02:43:16;;;;;;;40.27;20.50;;;2.10;99.90;;;;;;5003272;28;20648;-69
2023/01/26 02:45:42;;;;;;;37.57;21.10;;;2.20;99.90;;;;;;5011197;28;20507;-69
2023/01/26 02:48:08;;;;;;;40.23;23.33;;;2.20;99.90;;;;;;5009545;28;20207;-69
2023/01/26 02:50:34;;;;;;;33.30;18.40;;;2.20;99.90;;;;;;5008672;28;20430;-69
2023/01/26 02:53:01;;;;;;;33.60;20.77;;;2.20;99.90;;;;;;5005088;28;20216;-69
2023/01/26 02:55:29;;;;;;;39.00;22.13;;;2.20;99.90;;;;;;5016941;28;20437;-69
2023/01/26 02:58:04;;;;;;;41.17;20.97;;;2.30;99.90;;;;;;5013083;28;21049;-70
2023/01/26 03:00:36;;;;;;;40.73;21.43;;;2.30;99.90;;;;;;5017244;28;20465;-69
2023/01/26 03:03:06;;;;;;;39.33;22.50;;;2.20;99.90;;;;;;5021323;28;20425;-69
2023/01/26 03:05:32;;;;;;;36.57;21.50;;;2.10;99.90;;;;;;5011340;28;20436;-70
2023/01/26 03:07:57;;;;;;;41.70;21.27;;;2.10;99.90;;;;;;5009244;28;20458;-70
2023/01/26 03:10:24;;;;;;;49.27;22.53;;;2.10;99.90;;;;;;5011893;28;20183;-69
2023/01/26 03:12:49;;;;;;;39.77;20.40;;;2.10;99.90;;;;;;5019522;28;20268;-69
2023/01/26 03:29:20;;;;;;;32.17;20.00;;;2.00;99.90;;;;;;5016657;28;20447;-70
2023/01/26 03:31:46;;;;;;;30.30;17.60;;;2.00;99.90;;;;;;5014131;28;20838;-69
2023/01/26 03:34:11;;;;;;;36.20;20.73;;;2.00;99.90;;;;;;5019425;28;20180;-69
2023/01/26 03:36:37;;;;;;;39.00;18.33;;;2.10;99.90;;;;;;5022144;28;20199;-69
2023/01/26 03:39:04;;;;;;;30.80;16.83;;;2.10;99.90;;;;;;5020365;28;20217;-69
2023/01/26 03:57:53;;;;;;;24.43;15.53;;;2.00;99.90;;;;;;5023650;28;21237;-69
2023/01/26 04:00:20;;;;;;;29.60;16.93;;;1.90;99.90;;;;;;5021449;28;20468;-69
2023/01/26 04:08:23;;;;;;;27.57;15.10;;;1.70;99.90;;;;;;5008989;28;20453;-69
2023/01/26 04:10:53;;;;;;;23.87;14.03;;;1.70;99.90;;;;;;5012109;28;20495;-69
2023/01/26 04:21:34;;;;;;;26.87;14.80;;;1.70;99.90;;;;;;5008481;28;20440;-69
2023/01/26 04:24:01;;;;;;;28.80;16.13;;;1.70;99.90;;;;;;5018409;28;20433;-69
2023/01/26 04:26:35;;;;;;;24.73;14.43;;;1.80;99.90;;;;;;5012846;28;20812;-69
2023/01/26 04:29:07;;;;;;;26.83;15.20;;;1.80;99.90;;;;;;5003645;28;20461;-69
2023/01/26 04:31:33;;;;;;;33.00;15.20;;;1.80;99.90;;;;;;5015611;28;20499;-69
2023/01/26 04:34:00;;;;;;;33.53;15.57;;;1.70;99.90;;;;;;5022876;28;20485;-68
2023/01/26 04:36:26;;;;;;;31.83;16.37;;;1.70;99.90;;;;;;5000544;28;20437;-70
2023/01/26 04:38:51;;;;;;;29.50;15.80;;;1.70;99.90;;;;;;5022799;28;20464;-69
2023/01/26 04:41:17;;;;;;;27.13;15.47;;;1.60;99.90;;;;;;5020253;28;20441;-69
2023/01/26 04:43:42;;;;;;;29.40;15.27;;;1.60;99.90;;;;;;5023396;28;20179;-69
2023/01/26 04:46:09;;;;;;;24.60;15.07;;;1.70;99.90;;;;;;5028582;28;20182;-69
2023/01/26 04:48:35;;;;;;;27.17;17.20;;;1.70;99.90;;;;;;5020926;28;20238;-69
2023/01/26 04:51:03;;;;;;;32.20;16.57;;;1.70;99.90;;;;;;5022774;28;21087;-69
2023/01/26 04:53:30;;;;;;;32.10;17.50;;;1.60;99.90;;;;;;5021767;28;20443;-70
2023/01/26 04:55:56;;;;;;;33.87;17.37;;;1.60;99.90;;;;;;5022949;28;20529;-69
2023/01/26 04:58:21;;;;;;;30.47;17.67;;;1.60;99.90;;;;;;5020329;28;20556;-69
2023/01/26 05:00:51;;;;;;;31.33;16.63;;;1.60;99.90;;;;;;5022381;28;20240;-69
2023/01/26 05:03:17;;;;;;;23.30;14.30;;;1.60;99.90;;;;;;5021111;28;20227;-69
2023/01/26 05:05:44;;;;;;;26.60;14.97;;;1.60;99.90;;;;;;5017893;28;20449;-69
2023/01/26 05:08:09;;;;;;;26.07;16.00;;;1.70;99.90;;;;;;5007193;28;21173;-69
2023/01/26 05:10:35;;;;;;;27.17;14.53;;;1.70;99.90;;;;;;5021663;28;20487;-69
2023/01/26 05:13:01;;;;;;;27.00;15.77;;;1.70;99.90;;;;;;5023958;28;20270;-69
2023/01/26 05:15:26;;;;;;;27.07;15.23;;;1.90;99.90;;;;;;5017759;28;20183;-69
2023/01/26 05:17:52;;;;;;;23.50;14.90;;;1.90;99.90;;;;;;5021769;28;20219;-69
2023/01/26 05:20:17;;;;;;;17.63;11.93;;;1.90;99.90;;;;;;5013815;28;20266;-69
2023/01/26 05:22:43;;;;;;;22.40;12.00;;;1.90;99.90;;;;;;5027312;28;20178;-69
2023/01/26 05:25:09;;;;;;;18.87;13.27;;;1.80;99.90;;;;;;5024026;28;20179;-68
2023/01/26 05:27:35;;;;;;;19.60;12.60;;;1.80;99.90;;;;;;5013380;28;20692;-69
2023/01/26 05:30:00;;;;;;;22.90;13.23;;;1.80;99.90;;;;;;5009944;28;20445;-68
2023/01/26 05:32:29;;;;;;;24.67;11.90;;;1.70;99.90;;;;;;5011773;28;20197;-69
2023/01/26 05:34:56;;;;;;;23.30;12.40;;;1.80;99.90;;;;;;5011002;28;20265;-69
2023/01/26 05:37:24;;;;;;;23.10;12.83;;;1.80;99.90;;;;;;5009662;28;20441;-69
2023/01/26 05:39:50;;;;;;;21.80;11.30;;;1.70;99.90;;;;;;5010308;28;20466;-68
2023/01/26 05:42:15;;;;;;;19.53;11.77;;;1.70;99.90;;;;;;5011429;28;20441;-69
2023/01/26 05:44:41;;;;;;;20.93;11.47;;;1.60;99.90;;;;;;5018857;28;20228;-68
2023/01/26 05:47:07;;;;;;;26.20;12.90;;;1.70;99.90;;;;;;5015132;28;20545;-69
2023/01/26 05:49:32;;;;;;;19.50;12.87;;;1.70;99.90;;;;;;5017464;28;20652;-69
2023/01/26 05:51:58;;;;;;;25.07;14.43;;;1.70;99.90;;;;;;5021899;28;20206;-69
2023/01/26 05:54:23;;;;;;;16.03;10.97;;;1.70;99.90;;;;;;5016487;28;20195;-69
2023/01/26 05:56:50;;;;;;;20.67;11.50;;;1.70;99.90;;;;;;5020955;28;20551;-69
2023/01/26 05:59:15;;;;;;;22.30;11.27;;;1.60;99.90;;;;;;5021480;28;20683;-68
2023/01/26 06:01:41;;;;;;;17.30;11.80;;;1.70;99.90;;;;;;5014312;28;20433;-69
2023/01/26 06:04:06;;;;;;;20.50;10.87;;;1.60;99.90;;;;;;5027567;28;20182;-69
2023/01/26 06:06:32;;;;;;;18.77;11.40;;;1.60;99.90;;;;;;5013794;28;20179;-69
2023/01/26 06:08:57;;;;;;;17.00;10.60;;;1.60;99.90;;;;;;5021199;28;20203;-69
2023/01/26 06:11:23;;;;;;;18.93;11.13;;;1.50;99.90;;;;;;5023728;28;20724;-69
2023/01/26 06:13:49;;;;;;;18.97;10.67;;;1.50;99.90;;;;;;5022976;28;20606;-69
2023/01/26 06:16:14;;;;;;;19.07;11.00;;;1.50;99.90;;;;;;5019386;28;20183;-69
2023/01/26 06:18:40;;;;;;;18.40;11.63;;;1.50;99.90;;;;;;5021027;28;20344;-69
2023/01/26 06:21:05;;;;;;;18.63;10.37;;;1.50;99.90;;;;;;5020778;28;20653;-69
2023/01/26 06:23:31;;;;;;;14.97;9.50;;;1.50;99.90;;;;;;5020013;28;20665;-69
2023/01/26 06:26:01;;;;;;;17.50;10.77;;;1.50;99.90;;;;;;5021885;28;20187;-69
2023/01/26 06:28:27;;;;;;;15.40;9.73;;;1.50;99.90;;;;;;5023199;28;20284;-69
2023/01/26 06:31:07;;;;;;;16.60;9.87;;;1.40;99.90;;;;;;5022416;28;20953;-68
2023/01/26 06:33:35;;;;;;;16.50;10.40;;;1.40;99.90;;;;;;5016913;28;20445;-69
2023/01/26 06:36:12;;;;;;;19.93;12.00;;;1.40;99.90;;;;;;5015788;28;20442;-69
2023/01/26 06:38:38;;;;;;;19.07;10.17;;;1.40;99.90;;;;;;5019693;28;20531;-69
2023/01/26 06:41:06;;;;;;;16.80;11.70;;;1.50;99.90;;;;;;5018893;28;20451;-69
2023/01/26 06:43:33;;;;;;;18.80;12.50;;;1.50;99.90;;;;;;5023814;28;20500;-68
2023/01/26 06:45:59;;;;;;;16.47;10.77;;;1.50;99.90;;;;;;5022065;28;20441;-67
2023/01/26 06:48:26;;;;;;;17.30;10.83;;;1.40;99.90;;;;;;5018730;28;20511;-67
2023/01/26 06:50:52;;;;;;;17.43;9.87;;;1.50;99.90;;;;;;5020317;28;20183;-67
2023/01/26 06:53:25;;;;;;;18.17;11.23;;;1.40;99.90;;;;;;5019904;28;20448;-67
2023/01/26 06:55:51;;;;;;;18.40;10.30;;;1.50;99.90;;;;;;5017222;28;20437;-67
2023/01/26 06:58:16;;;;;;;17.67;10.97;;;1.40;99.90;;;;;;5021434;28;20508;-68
2023/01/26 07:00:42;;;;;;;19.83;11.97;;;1.50;99.90;;;;;;5016806;28;20225;-67
2023/01/26 07:03:09;;;;;;;13.97;10.17;;;1.50;99.90;;;;;;5019681;28;20174;-67
2023/01/26 07:05:35;;;;;;;16.07;10.30;;;1.50;99.90;;;;;;5023415;28;20178;-68
2023/01/26 07:08:03;;;;;;;22.00;13.10;;;1.40;99.90;;;;;;5018778;28;20544;-67
2023/01/26 07:10:29;;;;;;;22.47;12.40;;;1.40;99.90;;;;;;5020268;28;20270;-67
2023/01/26 07:12:54;;;;;;;19.17;11.80;;;1.40;99.90;;;;;;5021008;28;20974;-67
2023/01/26 07:15:20;;;;;;;18.43;11.10;;;1.40;99.90;;;;;;5022376;28;20440;-67
2023/01/26 07:17:46;;;;;;;19.53;11.63;;;1.40;99.90;;;;;;5022018;28;20233;-67
2023/01/26 07:20:11;;;;;;;20.83;12.30;;;1.40;99.90;;;;;;5017902;28;20211;-67
2023/01/26 07:22:37;;;;;;;20.73;12.07;;;1.40;99.90;;;;;;5018052;28;20537;-67
2023/01/26 07:25:03;;;;;;;18.07;11.33;;;1.40;99.90;;;;;;5021917;28;20589;-67
2023/01/26 07:27:28;;;;;;;20.77;11.97;;;1.40;99.90;;;;;;5023006;28;20198;-66
2023/01/26 07:29:54;;;;;;;20.23;13.00;;;1.40;99.90;;;;;;5014394;28;20282;-69
2023/01/26 07:32:19;;;;;;;20.70;13.53;;;1.40;99.90;;;;;;5008110;28;20274;-69
2023/01/26 07:34:45;;;;;;;19.83;12.83;;;1.40;99.90;;;;;;5012279;28;20182;-68
2023/01/26 07:37:10;;;;;;;20.03;13.03;;;1.40;99.90;;;;;;5017528;28;20683;-67
2023/01/26 07:39:36;;;;;;;19.23;11.40;;;1.40;99.90;;;;;;5025519;28;20205;-67
2023/01/26 07:42:01;;;;;;;19.47;11.10;;;1.40;99.90;;;;;;5014495;28;20640;-68
2023/01/26 07:44:27;;;;;;;17.57;10.47;;;1.50;99.90;;;;;;5009780;28;20190;-67
2023/01/26 07:46:53;;;;;;;17.40;11.10;;;1.50;99.90;;;;;;4966340;28;20183;-68
2023/01/26 07:49:18;;;;;;;17.90;11.30;;;1.50;99.90;;;;;;4993230;28;20203;-68
2023/01/26 07:51:44;;;;;;;20.17;12.80;;;1.50;99.90;;;;;;5008384;28;20441;-68
2023/01/26 07:54:11;;;;;;;18.07;10.97;;;1.50;99.90;;;;;;5005740;28;20179;-67
2023/01/26 07:56:37;;;;;;;19.03;12.00;;;1.50;99.90;;;;;;4997187;28;20175;-68
2023/01/26 07:59:03;;;;;;;19.93;12.63;;;1.40;99.90;;;;;;5005497;28;20479;-67
2023/01/26 08:01:28;;;;;;;19.07;12.50;;;1.40;99.90;;;;;;5009147;28;20191;-67
2023/01/26 08:03:54;;;;;;;17.70;11.87;;;1.40;99.90;;;;;;5009315;28;20186;-67
2023/01/26 08:06:20;;;;;;;24.80;13.40;;;1.40;99.90;;;;;;5004667;28;20179;-67
2023/01/26 08:08:50;;;;;;;22.20;13.23;;;1.40;99.90;;;;;;5008994;28;20234;-68
2023/01/26 08:11:16;;;;;;;20.93;14.57;;;1.30;99.90;;;;;;5015310;28;21117;-68
2023/01/26 08:13:42;;;;;;;24.67;14.97;;;1.30;99.90;;;;;;5015560;28;20437;-68
2023/01/26 08:16:10;;;;;;;20.43;12.90;;;1.30;99.90;;;;;;5006008;28;20962;-67
2023/01/26 08:18:40;;;;;;;22.93;12.33;;;1.20;99.90;;;;;;5004616;28;20207;-67
2023/01/26 08:21:06;;;;;;;18.60;13.33;;;1.20;99.90;;;;;;5004470;28;20441;-68
2023/01/26 08:23:31;;;;;;;23.60;13.70;;;1.30;99.90;;;;;;5009860;28;20433;-67
2023/01/26 08:26:04;;;;;;;25.50;15.63;;;1.40;99.90;;;;;;5004584;28;20186;-68
2023/01/26 08:28:30;;;;;;;23.13;15.00;;;1.30;99.90;;;;;;5006208;28;20214;-66
2023/01/26 08:31:01;;;;;;;20.27;13.30;;;1.30;99.90;;;;;;5003383;28;20441;-67
2023/01/26 08:33:27;;;;;;;19.27;12.67;;;1.40;99.90;;;;;;5014696;28;20483;-67
2023/01/26 08:35:52;;;;;;;20.73;12.00;;;1.40;99.90;;;;;;4987346;28;20523;-67
2023/01/26 08:38:18;;;;;;;16.83;10.67;;;1.50;99.90;;;;;;5011037;28;20191;-67
2023/01/26 08:40:43;;;;;;;14.50;10.60;;;1.40;99.90;;;;;;4998091;28;20634;-67
2023/01/26 08:43:09;;;;;;;15.03;10.80;;;1.50;99.90;;;;;;5005306;28;20163;-67
2023/01/26 08:45:34;;;;;;;23.20;12.20;;;1.50;99.90;;;;;;5010090;28;20183;-66
2023/01/26 08:48:00;;;;;;;18.57;11.90;;;1.60;99.90;;;;;;5014762;28;20207;-66
2023/01/26 08:50:25;;;;;;;16.60;11.00;;;1.70;99.90;;;;;;5013885;28;20175;-67
2023/01/26 08:52:53;;;;;;;18.10;10.63;;;1.70;99.90;;;;;;5012944;28;20196;-67
2023/01/26 08:55:19;;;;;;;13.97;9.33;;;1.70;99.90;;;;;;5013267;28;20202;-67
2023/01/26 08:57:45;;;;;;;14.87;9.23;;;1.70;99.90;;;;;;5011783;28;20887;-67
2023/01/26 09:00:12;;;;;;;15.07;10.40;;;1.80;99.90;;;;;;5013744;28;20661;-67
2023/01/26 09:02:37;;;;;;;12.83;8.30;;;1.80;99.90;;;;;;5014213;28;20422;-66
2023/01/26 09:05:03;;;;;;;16.40;9.53;;;1.80;99.90;;;;;;5012991;28;20422;-67
2023/01/26 09:07:29;;;;;;;11.77;9.10;;;1.70;99.90;;;;;;5011008;28;20195;-67
2023/01/26 09:09:54;;;;;;;18.10;10.23;;;1.70;99.90;;;;;;5013043;28;20171;-67
2023/01/26 09:12:20;;;;;;;18.93;11.40;;;1.70;99.90;;;;;;5013368;28;20648;-67
2023/01/26 09:14:45;;;;;;;18.30;12.17;;;1.70;99.90;;;;;;4996115;28;20179;-67
2023/01/26 09:17:11;;;;;;;24.30;15.23;;;1.70;99.90;;;;;;5009778;28;20203;-66
2023/01/26 09:19:36;;;;;;;18.60;11.60;;;1.70;99.90;;;;;;5012762;28;20280;-67
2023/01/26 09:22:02;;;;;;;19.33;12.30;;;1.60;99.90;;;;;;5014098;28;20576;-67
2023/01/26 09:24:27;;;;;;;17.23;11.73;;;1.60;99.90;;;;;;5012449;28;20703;-66
2023/01/26 09:26:53;;;;;;;15.60;10.53;;;1.60;99.90;;;;;;5010368;28;20175;-67
2023/01/26 09:29:19;;;;;;;14.43;11.60;;;1.70;99.90;;;;;;5013312;28;20213;-66
2023/01/26 09:31:44;;;;;;;16.33;12.13;;;1.80;99.90;;;;;;5012745;28;20261;-67
2023/01/26 09:34:10;;;;;;;19.60;11.10;;;1.70;99.90;;;;;;5013886;28;20422;-66
2023/01/26 09:36:35;;;;;;;19.20;10.67;;;1.70;99.90;;;;;;5010048;28;20179;-68
2023/01/26 09:39:01;;;;;;;16.30;10.17;;;1.70;99.90;;;;;;5012560;28;20214;-66
2023/01/26 09:41:53;;;;;;;16.80;10.10;;;1.70;99.90;;;;;;5013641;28;20166;-66
2023/01/26 09:44:23;;;;;;;15.50;9.40;;;1.70;99.90;;;;;;5012582;28;20178;-66
2023/01/26 09:47:10;;;;;;;18.87;10.57;;;1.70;99.90;;;;;;5009220;28;20433;-66
2023/01/26 09:49:44;;;;;;;15.80;10.30;;;1.70;99.90;;;;;;5012460;28;20453;-66
2023/01/26 09:52:35;;;;;;;12.50;8.60;;;1.70;99.90;;;;;;5013412;28;20471;-67
2023/01/26 09:55:09;;;;;;;13.50;8.53;;;1.80;99.90;;;;;;5012446;28;20484;-66
2023/01/26 09:57:51;;;;;;;13.73;8.57;;;1.80;99.90;;;;;;5009093;28;20444;-66
2023/01/26 10:00:25;;;;;;;10.53;8.03;;;1.80;99.90;;;;;;5012493;28;20515;-66
2023/01/26 10:03:12;;;;;;;12.00;8.87;;;1.80;99.90;;;;;;5013139;28;20429;-67
2023/01/26 10:05:59;;;;;;;18.00;10.63;;;1.80;99.90;;;;;;5002167;28;21396;-67
2023/01/26 10:08:25;;;;;;;16.90;10.53;;;1.70;99.90;;;;;;4992699;28;20490;-66
2023/01/26 10:11:16;;;;;;;15.83;11.00;;;1.70;99.90;;;;;;5008048;28;20434;-67
2023/01/26 10:13:50;;;;;;;15.57;10.63;;;1.70;99.90;;;;;;5013103;28;20418;-66
2023/01/26 10:16:15;;;;;;;18.10;12.23;;;1.60;99.90;;;;;;5008440;28;20441;-67
2023/01/26 10:18:52;;;;;;;16.47;10.43;;;1.50;99.90;;;;;;5011932;28;20468;-67
2023/01/26 10:21:21;;;;;;;19.70;11.93;;;1.40;99.90;;;;;;5012201;28;20708;-67
2023/01/26 10:23:48;;;;;;;25.60;14.60;;;1.50;99.90;;;;;;5012346;28;20857;-67
2023/01/26 10:26:19;;;;;;;20.33;13.73;;;1.40;99.90;;;;;;5009651;28;21002;-67
2023/01/26 10:28:46;;;;;;;19.03;12.03;;;1.40;99.90;;;;;;5010815;28;20549;-67
2023/01/26 10:31:18;;;;;;;15.70;10.03;;;1.40;99.90;;;;;;4995262;28;20454;-67
2023/01/26 10:33:55;;;;;;;16.40;9.50;;;1.40;99.90;;;;;;5004597;28;20441;-67
2023/01/26 10:36:21;;;;;;;15.40;9.10;;;1.40;99.90;;;;;;5009766;28;20438;-67
2023/01/26 10:38:48;;;;;;;16.70;10.90;;;1.40;99.90;;;;;;5011042;28;20845;-67
2023/01/26 10:41:15;;;;;;;16.27;11.30;;;1.40;99.90;;;;;;5012395;28;20484;-68
2023/01/26 10:43:48;;;;;;;22.03;10.33;;;1.50;99.90;;;;;;4981371;28;20806;-67
2023/01/26 10:46:43;;;;;;;19.87;12.00;;;1.50;99.90;;;;;;5008139;28;20440;-68
2023/01/26 10:49:08;;;;;;;15.90;11.10;;;1.50;99.90;;;;;;4988415;28;20459;-68
2023/01/26 10:51:38;;;;;;;11.80;9.10;;;1.60;99.90;;;;;;5009183;28;20801;-68
2023/01/26 10:54:27;;;;;;;11.80;7.27;;;1.60;99.90;;;;;;5012378;28;20210;-67
2023/01/26 10:57:29;;;;;;;9.80;7.03;;;1.50;99.90;;;;;;5009138;28;20425;-67
2023/01/26 11:00:00;;;;;;;12.37;8.37;;;1.50;99.90;;;;;;5010834;28;20457;-67
2023/01/26 11:02:29;;;;;;;9.77;7.57;;;1.50;99.90;;;;;;5012565;28;20422;-67
2023/01/26 11:05:05;;;;;;;10.63;7.10;;;1.40;99.90;;;;;;5011356;28;20430;-66
2023/01/26 11:07:45;;;;;;;12.40;8.00;;;1.40;99.90;;;;;;5008932;28;20456;-65
2023/01/26 11:10:22;;;;;;;12.93;8.07;;;1.40;99.90;;;;;;5011039;28;20426;-66
2023/01/26 11:12:48;;;;;;;11.70;8.30;;;1.40;99.90;;;;;;4999194;28;20434;-66
2023/01/26 11:15:20;;;;;;;16.43;8.73;;;1.40;99.90;;;;;;4992023;28;20510;-67
2023/01/26 11:18:03;;;;;;;18.30;10.13;;;1.40;99.90;;;;;;5009460;28;20469;-65
2023/01/26 11:20:55;;;;;;;16.87;10.40;;;1.40;99.90;;;;;;5011304;28;20979;-66
2023/01/26 11:23:38;;;;;;;17.70;11.67;;;1.40;99.90;;;;;;4997697;28;20517;-65
2023/01/26 11:26:43;;;;;;;14.53;9.67;;;1.50;99.90;;;;;;5008377;28;20421;-67
2023/01/26 11:29:30;;;;;;;16.07;9.73;;;1.60;99.90;;;;;;5005704;28;20511;-65
2023/01/26 11:32:21;;;;;;;13.27;9.43;;;1.60;99.90;;;;;;4996750;28;20429;-66
2023/01/26 11:34:57;;;;;;;15.27;9.67;;;1.60;99.90;;;;;;4999408;28;20440;-66
2023/01/26 11:37:39;;;;;;;16.07;10.67;;;1.60;99.90;;;;;;5007650;28;20421;-67
2023/01/26 11:40:10;;;;;;;13.83;9.77;;;1.60;99.90;;;;;;5010797;28;20823;-68
2023/01/26 11:42:49;;;;;;;16.00;11.87;;;1.60;99.90;;;;;;5011052;28;20804;-65
2023/01/26 11:45:34;;;;;;;18.53;11.80;;;1.60;99.90;;;;;;5009740;28;20497;-67
2023/01/26 11:48:21;;;;;;;12.67;9.63;;;1.60;99.90;;;;;;5010146;28;20441;-66
2023/01/26 11:51:00;;;;;;;15.63;9.83;;;1.50;99.90;;;;;;5011730;28;20468;-66
2023/01/26 11:53:43;;;;;;;17.73;10.83;;;1.40;99.90;;;;;;4993350;28;20433;-65
2023/01/26 11:56:56;;;;;;;16.50;10.50;;;1.40;99.90;;;;;;5008330;28;20425;-66
2023/01/26 11:59:29;;;;;;;28.40;10.77;;;1.30;99.90;;;;;;4911855;29;20480;-66
2023/01/26 12:02:29;;;;;;;19.13;10.83;;;1.30;99.90;;;;;;4910795;29;20529;-67
2023/01/26 12:04:57;;;;;;;13.30;8.90;;;1.20;99.90;;;;;;4972830;28;20532;-66
2023/01/26 12:07:54;;;;;;;16.47;10.60;;;1.20;99.90;;;;;;5007096;28;20455;-67
2023/01/26 12:10:35;;;;;;;17.00;10.20;;;1.20;99.90;;;;;;5005061;28;20437;-67
2023/01/26 12:13:15;;;;;;;16.10;10.73;;;1.20;99.90;;;;;;5006365;28;20432;-67
2023/01/26 12:15:47;;;;;;;17.97;9.90;;;1.10;99.90;;;;;;5012026;28;20969;-67
2023/01/26 12:18:34;;;;;;;17.40;9.80;;;1.10;99.90;;;;;;5013994;28;20477;-68
2023/01/26 12:21:07;;;;;;;17.23;10.93;;;1.00;99.90;;;;;;5007124;28;20467;-67
2023/01/26 12:23:55;;;;;;;18.30;10.60;;;1.10;99.90;;;;;;5015178;28;20424;-67
2023/01/26 12:26:23;;;;;;;17.17;10.60;;;1.20;99.90;;;;;;5010481;28;20620;-66
2023/01/26 12:29:00;;;;;;;17.40;10.37;;;1.20;99.90;;;;;;5013698;28;20446;-67
2023/01/26 12:31:37;;;;;;;12.90;8.00;;;1.10;99.90;;;;;;5013156;28;20432;-67
2023/01/26 12:34:10;;;;;;;18.00;10.33;;;1.10;99.90;;;;;;5014523;28;21017;-66
2023/01/26 12:36:57;;;;;;;18.07;9.33;;;1.10;99.90;;;;;;5011151;28;21310;-66
2023/01/26 12:39:43;;;;;;;16.90;9.10;;;1.10;99.90;;;;;;5005617;28;20936;-66
2023/01/26 12:42:16;;;;;;;14.60;8.90;;;1.10;99.90;;;;;;5013173;28;20409;-66
2023/01/26 12:44:53;;;;;;;17.53;9.83;;;1.10;99.90;;;;;;5014865;28;20402;-65
2023/01/26 12:47:26;;;;;;;15.13;9.10;;;1.10;99.90;;;;;;5008991;28;20449;-66
2023/01/26 12:50:23;;;;;;;18.87;11.60;;;1.10;99.90;;;;;;5014582;28;20907;-67
2023/01/26 12:53:04;;;;;;;15.97;9.60;;;1.10;99.90;;;;;;5005823;28;20979;-67
2023/01/26 12:55:58;;;;;;;19.23;10.70;;;1.20;99.90;;;;;;5011852;28;20426;-68
2023/01/26 12:58:33;;;;;;;17.43;9.17;;;1.10;99.90;;;;;;4924982;28;20461;-67
2023/01/26 13:01:09;;;;;;;13.93;8.13;;;1.10;99.90;;;;;;5014585;28;20423;-67
2023/01/26 13:03:54;;;;;;;13.27;8.57;;;1.20;99.90;;;;;;5014650;28;20409;-67
2023/01/26 13:06:25;;;;;;;17.13;9.80;;;1.10;99.90;;;;;;5002589;28;20444;-67
2023/01/26 13:08:59;;;;;;;12.00;7.73;;;1.20;99.90;;;;;;5013151;28;20890;-67
2023/01/26 13:12:00;;;;;;;14.30;9.50;;;1.30;99.90;;;;;;5013585;28;20429;-67
2023/01/26 13:14:36;;;;;;;14.70;9.17;;;1.30;99.90;;;;;;4915678;29;20528;-67
2023/01/26 13:17:16;;;;;;;16.37;8.73;;;1.30;99.90;;;;;;4995124;28;20820;-66
2023/01/26 13:19:42;;;;;;;17.87;10.50;;;1.40;99.90;;;;;;5012266;28;20540;-67
2023/01/26 13:22:22;;;;;;;14.10;8.90;;;1.50;99.90;;;;;;4995538;28;20556;-67
2023/01/26 13:24:54;;;;;;;18.80;10.00;;;1.50;99.90;;;;;;5011409;28;20183;-67
2023/01/26 13:27:38;;;;;;;17.57;10.70;;;1.50;99.90;;;;;;5010874;28;21001;-67
2023/01/26 13:30:22;;;;;;;14.57;8.80;;;1.50;99.90;;;;;;5012568;28;20426;-67
2023/01/26 13:32:48;;;;;;;15.30;8.90;;;1.40;99.90;;;;;;5013561;28;20448;-67
2023/01/26 13:35:20;;;;;;;14.23;9.40;;;1.40;99.90;;;;;;5012871;28;20532;-68
2023/01/26 13:38:01;;;;;;;16.10;9.97;;;1.40;99.90;;;;;;5011769;28;20222;-66
2023/01/26 13:40:34;;;;;;;14.50;8.87;;;1.40;99.90;;;;;;5013767;28;20504;-67